Time;durP1;ratioP1;P1;durP2;ratioP2;P2;SDS_P1;SDS_P2;PMS_P1;PMS_P2;Temp;Humidity;BMP_temperature;BMP_pressure;BME280_temperature;BME280_humidity;BME280_pressure;Samples;Min_cycle;Max_cycle;Signal;HPM_P1;HPM_P2
2022/01/17 00:00:34;;;;;;;15.18;3.17;;;;;;;4.95;88.91;101660.09;5112955;27;20182;-44
2022/01/17 00:03:01;;;;;;;18.38;3.70;;;;;;;4.99;89.15;101661.00;5112775;28;20222;-42
2022/01/17 00:05:28;;;;;;;19.35;3.67;;;;;;;4.95;89.06;101660.97;5112904;28;20200;-45
2022/01/17 00:07:53;;;;;;;19.10;3.88;;;;;;;5.00;89.51;101660.09;5112424;28;20660;-45
2022/01/17 00:10:19;;;;;;;21.90;3.22;;;;;;;4.98;89.36;101693.72;5112439;28;20201;-47
2022/01/17 00:12:46;;;;;;;18.80;3.67;;;;;;;4.98;89.92;101684.00;5112289;28;20189;-46
2022/01/17 00:15:20;;;;;;;22.58;4.25;;;;;;;5.03;89.84;101668.94;5112136;28;20591;-46
2022/01/17 00:17:50;;;;;;;25.90;3.88;;;;;;;5.03;89.55;101697.25;5112349;28;20497;-43
2022/01/17 00:20:24;;;;;;;27.30;3.97;;;;;;;5.03;89.86;101703.47;5112068;28;20181;-46
2022/01/17 00:22:50;;;;;;;15.90;3.30;;;;;;;5.02;90.28;101692.84;5111965;28;20188;-43
2022/01/17 00:25:15;;;;;;;21.50;3.53;;;;;;;4.95;90.58;101694.63;5110733;28;20669;-48
2022/01/17 00:27:40;;;;;;;20.77;3.63;;;;;;;4.94;90.92;101704.38;5111645;28;20165;-47
2022/01/17 00:30:09;;;;;;;25.42;3.72;;;;;;;4.95;90.98;101686.66;5111852;28;20709;-47
2022/01/17 00:32:34;;;;;;;20.58;3.45;;;;;;;4.97;90.90;101697.28;5111914;28;20248;-46
2022/01/17 00:35:00;;;;;;;25.95;4.55;;;;;;;5.01;91.15;101704.34;5111388;28;20213;-47
2022/01/17 00:37:25;;;;;;;22.25;4.22;;;;;;;5.00;91.51;101702.59;5110623;28;20165;-46
2022/01/17 00:39:51;;;;;;;18.25;3.45;;;;;;;4.98;91.46;101701.69;5112145;28;20253;-46
2022/01/17 00:42:16;;;;;;;25.38;4.55;;;;;;;5.11;91.42;101695.47;5111416;28;20169;-47
2022/01/17 00:44:42;;;;;;;19.60;3.63;;;;;;;4.97;91.74;101682.25;5111909;28;20172;-47
2022/01/17 00:47:07;;;;;;;20.23;3.63;;;;;;;4.97;91.93;101700.81;5110274;28;20307;-46
2022/01/17 00:49:33;;;;;;;28.92;5.00;;;;;;;4.99;92.03;101690.22;5111447;28;20161;-44
2022/01/17 00:51:58;;;;;;;21.58;4.25;;;;;;;4.98;92.09;101685.78;5111394;28;20339;-46
2022/01/17 00:54:24;;;;;;;21.70;4.38;;;;;;;4.94;92.27;101674.25;5111686;28;20165;-47
2022/01/17 00:56:49;;;;;;;21.27;4.30;;;;;;;4.99;91.75;101679.59;5111216;28;20536;-45
2022/01/17 00:59:15;;;;;;;16.23;3.80;;;;;;;5.02;91.49;101655.66;5111511;27;20184;-47
2022/01/17 01:01:40;;;;;;;25.33;3.97;;;;;;;5.06;91.47;101670.72;5111583;28;20180;-48
2022/01/17 01:04:06;;;;;;;25.88;4.22;;;;;;;5.06;91.12;101663.63;5111511;28;20170;-44
2022/01/17 01:06:31;;;;;;;28.35;4.25;;;;;;;5.10;90.98;101669.81;5109257;28;20208;-47
2022/01/17 01:08:57;;;;;;;20.75;4.30;;;;;;;5.10;90.90;101676.00;5111389;28;20533;-46
2022/01/17 01:11:23;;;;;;;22.33;3.40;;;;;;;5.17;90.54;101671.56;5111338;28;20201;-48
2022/01/17 01:13:48;;;;;;;19.80;4.28;;;;;;;5.16;90.54;101667.16;5111493;28;20638;-48
2022/01/17 01:19:06;;;;;;;23.30;4.13;;;;;;;5.17;90.84;101671.56;5110879;28;20245;-46
2022/01/17 01:21:59;;;;;;;21.95;3.92;;;;;;;5.22;90.15;101664.47;5111011;28;20719;-47
2022/01/17 01:29:47;;;;;;;20.73;3.83;;;;;;;5.25;90.34;101674.22;5111011;28;20149;-48
2022/01/17 01:32:17;;;;;;;32.28;5.50;;;;;;;5.29;90.21;101666.25;5111639;28;20184;-40
2022/01/17 01:34:47;;;;;;;23.58;5.03;;;;;;;5.36;90.40;101675.06;5111290;28;20162;-40
2022/01/17 01:37:12;;;;;;;23.40;4.00;;;;;;;5.38;90.20;101652.03;5104171;28;20213;-41
2022/01/17 01:39:38;;;;;;;22.60;4.40;;;;;;;5.30;90.09;101667.13;5091076;28;20158;-41
2022/01/17 01:42:10;;;;;;;30.58;4.50;;;;;;;5.35;90.28;101666.19;5090790;28;20265;-42
2022/01/17 01:44:37;;;;;;;30.42;5.05;;;;;;;5.36;89.62;101646.72;5090846;28;20181;-40
2022/01/17 01:47:02;;;;;;;23.52;4.35;;;;;;;5.39;89.71;101658.22;5089926;28;20551;-43
2022/01/17 01:49:28;;;;;;;19.92;3.65;;;;;;;5.39;89.41;101652.91;5090595;28;20175;-41
2022/01/17 01:51:53;;;;;;;18.98;4.35;;;;;;;5.43;89.25;101662.66;5090224;28;20221;-40
2022/01/17 01:54:19;;;;;;;22.08;4.22;;;;;;;5.41;89.18;101657.31;5090538;28;20190;-41
2022/01/17 01:56:46;;;;;;;18.02;3.53;;;;;;;5.48;88.45;101666.16;5090203;28;20285;-41
2022/01/17 01:59:14;;;;;;;23.20;3.90;;;;;;;5.39;88.90;101639.63;5090130;28;20677;-41
2022/01/17 02:01:39;;;;;;;17.40;3.78;;;;;;;5.41;89.20;101638.72;5090390;28;20531;-41
2022/01/17 02:04:05;;;;;;;20.25;4.05;;;;;;;5.49;89.19;101628.06;5089926;28;20162;-40
2022/01/17 02:06:34;;;;;;;24.50;4.07;;;;;;;5.49;88.70;101617.44;5090144;28;20201;-40
2022/01/17 02:09:04;;;;;;;28.05;4.35;;;;;;;5.49;89.10;101618.31;5090529;28;20166;-41
2022/01/17 02:11:31;;;;;;;25.42;4.47;;;;;;;5.50;89.24;101632.50;5089731;28;20221;-39
2022/01/17 02:13:57;;;;;;;21.88;3.67;;;;;;;5.51;89.10;101621.84;5090095;28;20193;-41
2022/01/17 02:16:23;;;;;;;20.55;4.72;;;;;;;5.50;89.52;101601.47;5089877;28;20689;-40
2022/01/17 02:18:49;;;;;;;20.15;4.38;;;;;;;5.54;89.57;101608.53;5090449;28;20626;-40
2022/01/17 02:23:43;;;;;;;25.90;4.20;;;;;;;5.62;89.93;101576.63;5090317;28;20289;-41
2022/01/17 02:26:09;;;;;;;24.45;4.57;;;;;;;5.64;89.91;101566.84;5090328;28;20308;-39
2022/01/17 02:28:36;;;;;;;20.40;3.28;;;;;;;5.59;89.53;101555.34;5090233;28;20224;-40
2022/01/17 02:31:06;;;;;;;24.05;4.28;;;;;;;5.62;89.79;101558.00;5090359;28;20193;-42
2022/01/17 02:33:33;;;;;;;28.00;4.30;;;;;;;5.63;89.90;101558.88;5090057;28;20651;-41
2022/01/17 02:35:59;;;;;;;20.17;3.90;;;;;;;5.61;89.98;101552.69;5089984;28;20186;-43
2022/01/17 02:38:24;;;;;;;19.42;4.68;;;;;;;5.61;90.43;101536.75;5090016;28;20192;-41
2022/01/17 02:40:50;;;;;;;18.05;3.92;;;;;;;5.63;90.03;101526.97;5090051;28;20205;-40
2022/01/17 02:43:18;;;;;;;21.33;3.78;;;;;;;5.72;89.77;101546.41;5090334;28;20197;-41
2022/01/17 02:48:23;;;;;;;18.75;3.38;;;;;;;5.80;89.15;101533.06;5110342;28;20622;-40
2022/01/17 02:50:49;;;;;;;22.83;4.13;;;;;;;5.75;89.65;101561.44;5109787;28;20193;-42
2022/01/17 02:53:15;;;;;;;22.35;3.60;;;;;;;5.81;89.48;101555.22;5110405;28;20215;-40
2022/01/17 02:55:53;;;;;;;18.48;3.65;;;;;;;5.78;89.75;101546.38;5104391;28;20677;-41
2022/01/17 02:58:21;;;;;;;21.70;4.20;;;;;;;5.83;89.82;101564.94;5110245;28;20726;-41
2022/01/17 03:00:48;;;;;;;20.98;3.97;;;;;;;5.78;90.27;101546.38;5113556;28;20253;-41
2022/01/17 03:03:15;;;;;;;22.80;3.83;;;;;;;5.81;90.38;101563.19;5113321;28;20173;-41
2022/01/17 03:05:40;;;;;;;23.45;3.72;;;;;;;5.89;89.94;101566.69;5113498;28;20209;-40
2022/01/17 03:08:06;;;;;;;25.13;4.45;;;;;;;5.90;89.80;101557.81;5113510;28;20167;-41
2022/01/17 03:10:39;;;;;;;19.60;3.88;;;;;;;5.85;90.47;101570.25;5113906;28;20262;-41
2022/01/17 03:13:12;;;;;;;20.98;3.78;;;;;;;5.83;90.64;101564.94;5112071;28;20192;-40
2022/01/17 03:15:39;;;;;;;21.67;4.63;;;;;;;5.80;91.25;101554.34;5112594;28;20265;-40
2022/01/17 03:18:06;;;;;;;22.48;3.33;;;;;;;5.83;91.18;101542.78;5113335;28;20227;-41
2022/01/17 03:20:34;;;;;;;26.10;3.78;;;;;;;5.91;91.55;101549.81;5114016;28;20177;-40
2022/01/17 03:23:00;;;;;;;25.10;3.78;;;;;;;5.86;91.50;101535.69;5114017;28;20166;-40
2022/01/17 03:25:26;;;;;;;21.02;4.18;;;;;;;5.83;91.83;101538.34;5111957;28;20685;-41
2022/01/17 03:27:51;;;;;;;18.60;4.07;;;;;;;5.85;91.91;101541.00;5113575;28;20219;-41
2022/01/17 03:30:17;;;;;;;21.02;3.97;;;;;;;5.85;92.48;101556.97;5113180;28;20666;-41
2022/01/17 03:32:42;;;;;;;21.02;4.25;;;;;;;5.73;93.13;101550.84;5112732;28;20243;-41
2022/01/17 03:35:08;;;;;;;27.60;4.82;;;;;;;5.71;93.62;101546.44;5113032;28;20166;-44
2022/01/17 03:37:34;;;;;;;26.70;4.47;;;;;;;5.77;93.81;101547.28;5113134;28;20162;-41
2022/01/17 03:39:59;;;;;;;24.35;4.95;;;;;;;5.75;93.82;101542.84;5112993;28;20182;-40
2022/01/17 03:42:25;;;;;;;20.98;4.50;;;;;;;5.69;95.17;101545.56;5112956;28;20166;-41
2022/01/17 03:44:51;;;;;;;18.60;3.72;;;;;;;5.62;95.67;101538.50;5113196;28;20625;-42
2022/01/17 03:47:16;;;;;;;17.13;3.42;;;;;;;5.58;97.12;101546.50;5112622;28;20192;-41
2022/01/17 03:49:42;;;;;;;22.80;4.22;;;;;;;5.52;97.89;101537.69;5112910;28;20170;-42
2022/01/17 03:52:08;;;;;;;34.90;4.18;;;;;;;5.45;98.94;101543.94;5112726;28;20536;-41
2022/01/17 03:54:34;;;;;;;29.15;4.65;;;;;;;5.47;99.66;101534.19;5113137;28;20165;-41
2022/01/17 03:56:59;;;;;;;31.98;5.38;;;;;;;5.41;100.00;101524.44;5112652;28;20287;-41
2022/01/17 03:59:25;;;;;;;30.58;4.45;;;;;;;5.39;100.00;101504.09;5113059;28;20170;-40
2022/01/17 04:01:51;;;;;;;25.55;4.07;;;;;;;5.54;100.00;101525.28;5112997;28;20226;-40
2022/01/17 04:04:17;;;;;;;21.63;4.07;;;;;;;5.47;100.00;101503.16;5112515;28;20165;-42
2022/01/17 04:06:43;;;;;;;24.63;4.10;;;;;;;5.50;100.00;101516.41;5112472;28;20742;-41
2022/01/17 04:09:09;;;;;;;19.38;3.85;;;;;;;5.50;100.00;101511.09;5112588;28;20168;-41
2022/01/17 04:11:34;;;;;;;26.92;4.03;;;;;;;5.58;100.00;101503.09;5112306;28;20193;-40
2022/01/17 04:14:00;;;;;;;29.25;4.38;;;;;;;5.58;100.00;101496.00;5112339;28;20177;-40
2022/01/17 04:16:25;;;;;;;16.65;4.00;;;;;;;5.59;100.00;101502.19;5112265;28;20185;-42
2022/01/17 04:18:53;;;;;;;21.13;3.90;;;;;;;5.56;100.00;101492.47;5112281;28;20181;-39
2022/01/17 04:21:19;;;;;;;25.50;4.35;;;;;;;5.53;100.00;101476.56;5112200;28;20183;-41
2022/01/17 04:23:44;;;;;;;25.45;3.95;;;;;;;5.53;100.00;101494.25;5112368;28;20251;-39
2022/01/17 04:26:09;;;;;;;26.15;4.15;;;;;;;5.52;100.00;101500.47;5112079;28;20546;-39
2022/01/17 04:28:35;;;;;;;27.83;5.15;;;;;;;5.58;100.00;101495.13;5112701;28;20248;-42
2022/01/17 04:31:01;;;;;;;24.63;4.65;;;;;;;5.63;100.00;101474.69;5112616;28;20300;-40
2022/01/17 04:33:26;;;;;;;22.85;4.60;;;;;;;5.62;100.00;101480.91;5111952;28;20514;-39
2022/01/17 04:35:51;;;;;;;18.63;4.38;;;;;;;5.63;100.00;101476.47;5111644;28;20227;-41
2022/01/17 04:38:18;;;;;;;19.60;4.20;;;;;;;5.62;100.00;101495.97;5112331;28;20298;-40
2022/01/17 04:40:47;;;;;;;26.30;4.63;;;;;;;5.64;100.00;101486.19;5112310;28;20157;-41
2022/01/17 04:46:11;;;;;;;24.38;3.85;;;;;;;5.68;100.00;101490.59;5086734;28;20229;-41
2022/01/17 04:48:38;;;;;;;25.30;3.80;;;;;;;5.70;100.00;101510.97;5112220;28;20661;-41
2022/01/17 04:51:03;;;;;;;20.48;3.60;;;;;;;5.81;100.00;101513.53;5111735;28;20193;-41
2022/01/17 04:53:30;;;;;;;24.13;4.18;;;;;;;5.73;100.00;101508.31;5110462;28;20554;-41
2022/01/17 04:55:56;;;;;;;20.33;3.47;;;;;;;5.82;100.00;101517.13;5104694;28;20189;-43
2022/01/17 04:58:23;;;;;;;19.38;3.47;;;;;;;5.73;100.00;101495.00;5111847;28;20260;-41
2022/01/17 05:00:49;;;;;;;21.88;3.72;;;;;;;5.73;100.00;101491.47;5111454;27;20199;-40
2022/01/17 05:03:20;;;;;;;23.65;4.20;;;;;;;5.72;100.00;101513.63;5111838;28;20169;-40
2022/01/17 05:05:46;;;;;;;22.35;4.35;;;;;;;5.83;100.00;101500.25;5111292;28;20205;-41
2022/01/17 05:08:12;;;;;;;19.42;3.80;;;;;;;5.83;100.00;101516.19;5111326;28;20222;-42
2022/01/17 05:10:37;;;;;;;14.07;3.53;;;;;;;5.93;100.00;101499.28;5111534;28;20669;-40
2022/01/17 05:13:03;;;;;;;16.33;3.53;;;;;;;5.85;100.00;101486.03;5111525;28;20161;-42
2022/01/17 05:20:41;;;;;;;17.50;3.88;;;;;;;5.76;100.00;101526.88;5069492;28;20177;-42
2022/01/17 05:23:08;;;;;;;23.70;3.97;;;;;;;5.73;100.00;101520.72;5110638;28;20662;-42
2022/01/17 05:25:35;;;;;;;17.95;3.95;;;;;;;5.76;100.00;101523.34;5111106;28;20220;-40
2022/01/17 05:28:01;;;;;;;15.00;3.25;;;;;;;5.67;100.00;101524.28;5111078;28;20180;-40
2022/01/17 05:30:27;;;;;;;17.80;3.15;;;;;;;5.67;100.00;101516.31;5109358;28;20205;-41
2022/01/17 05:32:54;;;;;;;20.52;3.13;;;;;;;5.73;100.00;101510.09;5111032;28;20725;-39
2022/01/17 05:35:20;;;;;;;18.70;3.17;;;;;;;5.68;100.00;101495.91;5110620;28;20530;-41
2022/01/17 05:37:47;;;;;;;15.38;3.13;;;;;;;5.70;100.00;101486.16;5110693;28;20336;-41
2022/01/17 05:40:15;;;;;;;17.98;3.30;;;;;;;5.68;100.00;101482.63;5110781;28;20248;-42
2022/01/17 05:42:40;;;;;;;13.30;2.50;;;;;;;5.70;100.00;101483.50;5110553;28;20162;-42
2022/01/17 05:45:08;;;;;;;19.90;4.13;;;;;;;5.74;100.00;101493.22;5110682;28;20516;-42
2022/01/17 05:47:34;;;;;;;19.13;3.15;;;;;;;5.82;100.00;101506.47;5110881;28;20235;-41
2022/01/17 05:50:02;;;;;;;18.00;3.15;;;;;;;5.88;100.00;101535.66;5110890;28;20617;-42
2022/01/17 05:52:29;;;;;;;19.55;3.17;;;;;;;5.87;100.00;101534.78;5110748;28;20170;-41
2022/01/17 05:54:54;;;;;;;18.50;3.58;;;;;;;5.86;100.00;101535.69;5110635;28;20165;-43
2022/01/17 05:57:19;;;;;;;19.85;3.35;;;;;;;5.91;100.00;101509.94;5110412;28;20161;-41
2022/01/17 05:59:45;;;;;;;19.33;3.90;;;;;;;5.95;100.00;101518.81;5109974;28;20248;-41
2022/01/17 06:02:11;;;;;;;18.25;3.13;;;;;;;5.89;100.00;101522.34;5110764;28;20204;-39
2022/01/17 06:04:36;;;;;;;18.90;3.38;;;;;;;5.90;100.00;101531.22;5110618;28;20252;-41
2022/01/17 06:07:03;;;;;;;17.65;3.50;;;;;;;5.95;100.00;101526.78;5110461;28;20192;-39
2022/01/17 06:09:29;;;;;;;15.23;3.03;;;;;;;5.96;100.00;101544.50;5110473;28;20236;-41
2022/01/17 06:11:54;;;;;;;20.60;4.03;;;;;;;5.92;100.00;101562.22;5110613;28;20662;-41
2022/01/17 06:14:21;;;;;;;13.98;2.75;;;;;;;5.96;100.00;101549.81;5109057;28;20199;-44
2022/01/17 06:16:47;;;;;;;24.90;3.50;;;;;;;5.99;100.00;101568.41;5110207;28;20177;-43
2022/01/17 06:19:13;;;;;;;17.15;3.20;;;;;;;5.98;100.00;101566.66;5110496;28;20227;-45
2022/01/17 06:21:39;;;;;;;21.75;3.28;;;;;;;5.97;100.00;101548.94;5110163;28;20533;-44
2022/01/17 06:24:06;;;;;;;15.02;3.40;;;;;;;5.98;100.00;101529.41;5108853;28;20162;-44
2022/01/17 06:26:33;;;;;;;19.92;4.10;;;;;;;6.03;100.00;101505.44;5110322;28;20197;-41
2022/01/17 06:28:59;;;;;;;15.88;3.45;;;;;;;6.09;100.00;101508.91;5109620;28;20540;-44
2022/01/17 06:31:24;;;;;;;24.00;4.05;;;;;;;6.08;100.00;101493.88;5110353;28;20642;-40
2022/01/17 06:33:49;;;;;;;25.73;3.63;;;;;;;6.22;100.00;101517.69;5112616;28;20466;-41
2022/01/17 06:36:15;;;;;;;24.20;4.43;;;;;;;6.17;100.00;101516.84;5114189;28;20611;-42
2022/01/17 06:38:40;;;;;;;15.48;3.97;;;;;;;6.27;100.00;101509.66;5114098;28;20535;-40
2022/01/17 06:41:06;;;;;;;19.98;4.07;;;;;;;6.29;100.00;101545.13;5114376;28;20203;-42
2022/01/17 06:43:31;;;;;;;26.42;4.65;;;;;;;6.31;100.00;101557.50;5114303;28;20744;-42
2022/01/17 06:45:56;;;;;;;20.67;4.35;;;;;;;6.31;100.00;101567.28;5113865;28;20185;-40
2022/01/17 06:48:22;;;;;;;27.70;5.32;;;;;;;6.32;100.00;101595.63;5114042;28;20532;-40
2022/01/17 06:50:47;;;;;;;23.88;4.70;;;;;;;6.29;100.00;101607.19;5113950;28;20189;-44
2022/01/17 06:53:13;;;;;;;24.67;4.38;;;;;;;6.34;100.00;101609.81;5114098;28;20173;-42
2022/01/17 06:55:38;;;;;;;28.35;5.00;;;;;;;6.36;100.00;101639.97;5114063;28;20272;-40
2022/01/17 06:58:03;;;;;;;31.48;5.50;;;;;;;6.32;100.00;101632.91;5113930;28;20161;-45
2022/01/17 07:00:29;;;;;;;31.48;5.63;;;;;;;6.29;100.00;101659.53;5113823;28;20248;-43
2022/01/17 07:02:54;;;;;;;36.45;5.22;;;;;;;6.23;100.00;101660.50;5113930;27;20161;-43
2022/01/17 07:05:20;;;;;;;25.13;4.90;;;;;;;6.21;100.00;101653.38;5112970;27;20278;-45
2022/01/17 07:07:45;;;;;;;27.02;5.15;;;;;;;6.17;100.00;101640.13;5112482;28;20161;-42
2022/01/17 07:10:11;;;;;;;24.63;4.55;;;;;;;6.14;100.00;101613.53;5114126;28;20185;-41
2022/01/17 07:12:37;;;;;;;24.98;4.32;;;;;;;6.17;100.00;101564.75;5113139;28;20184;-44
2022/01/17 07:15:07;;;;;;;13.05;2.95;;;;;;;6.17;100.00;101552.31;5112993;28;20268;-47
2022/01/17 07:17:32;;;;;;;14.15;3.20;;;;;;;6.07;100.00;101549.75;5113401;28;20162;-46
2022/01/17 07:19:58;;;;;;;15.20;3.30;;;;;;;5.99;100.00;101549.78;5113613;28;20169;-40
2022/01/17 07:22:23;;;;;;;12.00;2.20;;;;;;;5.98;100.00;101558.66;5113248;28;20172;-41
2022/01/17 07:24:49;;;;;;;9.45;2.25;;;;;;;6.01;100.00;101605.63;5113046;28;20173;-42
2022/01/17 07:27:15;;;;;;;13.07;2.58;;;;;;;5.99;100.00;101621.59;5113178;28;20220;-42
2022/01/17 07:29:42;;;;;;;7.28;1.75;;;;;;;6.01;100.00;101633.13;5113168;28;20157;-42
2022/01/17 07:32:08;;;;;;;11.68;2.28;;;;;;;5.92;100.00;101627.81;5112743;28;20193;-42
2022/01/17 07:34:34;;;;;;;12.40;2.42;;;;;;;5.89;100.00;101649.13;5112686;28;20170;-42
2022/01/17 07:36:59;;;;;;;11.82;2.30;;;;;;;5.94;100.00;101656.22;5112489;28;20549;-43
2022/01/17 07:39:26;;;;;;;10.15;2.45;;;;;;;5.88;99.97;101644.69;5112964;28;20172;-41
2022/01/17 07:41:51;;;;;;;12.93;2.20;;;;;;;5.82;99.37;101645.63;5111417;28;20162;-45
2022/01/17 07:44:21;;;;;;;11.30;2.00;;;;;;;5.85;98.91;101681.97;5093059;28;20330;-42
2022/01/17 07:46:49;;;;;;;13.85;2.50;;;;;;;5.76;97.34;101725.44;5111446;28;20242;-41
2022/01/17 07:49:22;;;;;;;14.05;2.83;;;;;;;5.81;96.46;101730.72;5112363;28;20170;-42
2022/01/17 07:51:51;;;;;;;9.95;2.53;;;;;;;5.82;95.97;101703.25;5112731;28;20243;-43
2022/01/17 07:54:18;;;;;;;12.95;2.40;;;;;;;5.76;95.42;101736.06;5112249;28;20173;-43
2022/01/17 07:56:44;;;;;;;10.88;2.45;;;;;;;5.73;95.34;101746.72;5112482;28;20234;-41
2022/01/17 07:59:10;;;;;;;9.90;2.25;;;;;;;5.67;94.91;101760.91;5112504;28;20177;-43
2022/01/17 08:01:37;;;;;;;9.95;2.35;;;;;;;5.71;93.83;101736.09;5112167;28;20532;-42
2022/01/17 08:04:04;;;;;;;9.45;2.60;;;;;;;5.73;93.64;101771.53;5112298;28;20253;-44
2022/01/17 08:06:30;;;;;;;12.95;2.10;;;;;;;5.70;93.13;101776.84;5111972;28;20193;-40
2022/01/17 08:08:57;;;;;;;14.65;2.85;;;;;;;5.68;93.11;101761.78;5112331;28;20525;-42
2022/01/17 08:11:22;;;;;;;10.05;2.40;;;;;;;5.62;92.88;101759.13;5111901;28;20660;-43
2022/01/17 08:13:48;;;;;;;9.70;2.13;;;;;;;5.69;92.65;101761.78;5112299;28;20254;-41
2022/01/17 08:16:15;;;;;;;14.98;2.17;;;;;;;5.58;93.11;101783.09;5111994;28;20203;-40
2022/01/17 08:18:41;;;;;;;14.02;2.47;;;;;;;5.52;94.10;101768.91;5112026;28;20218;-41
2022/01/17 08:21:07;;;;;;;10.77;2.22;;;;;;;5.51;92.52;101773.38;5112220;28;20154;-47
2022/01/17 08:23:32;;;;;;;13.55;2.53;;;;;;;5.52;91.05;101785.75;5112075;28;20545;-40
2022/01/17 08:25:57;;;;;;;15.55;2.67;;;;;;;5.53;90.31;101786.63;5112804;27;20189;-43
2022/01/17 08:28:23;;;;;;;13.18;2.85;;;;;;;5.52;90.44;101792.84;5112209;28;20410;-44
2022/01/17 08:30:48;;;;;;;12.93;2.50;;;;;;;5.41;90.42;101790.19;5112671;28;20209;-40
2022/01/17 08:33:14;;;;;;;9.25;2.10;;;;;;;5.44;89.31;101791.97;5113077;28;20166;-42
2022/01/17 08:35:39;;;;;;;17.33;2.70;;;;;;;5.43;87.69;101791.09;5112532;28;20689;-46
2022/01/17 08:38:05;;;;;;;14.20;2.60;;;;;;;5.35;88.20;101814.13;5112854;28;20166;-41
2022/01/17 08:40:30;;;;;;;11.13;2.30;;;;;;;5.36;86.52;101806.16;5112281;28;20161;-43
2022/01/17 08:42:56;;;;;;;14.02;2.55;;;;;;;5.30;86.40;101835.38;5112613;28;20204;-43
2022/01/17 08:45:23;;;;;;;17.90;3.25;;;;;;;5.40;86.13;101835.38;5112507;28;20293;-41
2022/01/17 08:47:51;;;;;;;14.32;2.58;;;;;;;5.47;86.07;101835.38;5113285;28;20165;-42
2022/01/17 08:50:21;;;;;;;12.13;2.17;;;;;;;5.62;85.42;101857.50;5112748;28;20262;-40
2022/01/17 08:52:48;;;;;;;12.75;2.53;;;;;;;5.58;86.19;101848.66;5112072;28;20659;-40
2022/01/17 08:55:15;;;;;;;12.32;2.67;;;;;;;5.52;86.44;101852.19;5112405;28;20198;-42
2022/01/17 08:57:40;;;;;;;11.27;2.13;;;;;;;5.42;86.24;101839.78;5111376;28;20682;-44
2022/01/17 09:00:10;;;;;;;16.48;2.85;;;;;;;5.44;86.67;101827.38;5112357;28;20169;-42
2022/01/17 09:02:35;;;;;;;14.15;3.15;;;;;;;5.47;85.66;101838.03;5112279;28;20161;-41
2022/01/17 09:05:01;;;;;;;14.57;2.45;;;;;;;5.45;85.61;101839.81;5111835;28;20169;-42
2022/01/17 09:07:26;;;;;;;16.65;2.85;;;;;;;5.41;85.40;101874.38;5112408;28;20177;-42
2022/01/17 09:09:52;;;;;;;13.95;3.10;;;;;;;5.49;84.76;101888.56;5111727;28;20177;-42
2022/01/17 09:12:17;;;;;;;10.85;2.75;;;;;;;5.51;85.61;101898.28;5111166;28;20193;-42
2022/01/17 09:14:43;;;;;;;18.15;3.17;;;;;;;5.40;86.34;101910.69;5111060;28;20181;-41
2022/01/17 09:17:10;;;;;;;15.13;3.50;;;;;;;5.27;88.76;101925.75;5111005;28;20262;-41
2022/01/17 09:19:39;;;;;;;16.08;2.88;;;;;;;5.16;90.13;101917.75;5111427;28;20201;-42
2022/01/17 09:22:07;;;;;;;17.02;2.95;;;;;;;4.93;90.71;101922.13;5110740;28;20534;-41
2022/01/17 09:24:33;;;;;;;17.65;3.63;;;;;;;4.86;90.52;101931.84;5110987;28;20185;-41
2022/01/17 09:26:59;;;;;;;19.55;3.45;;;;;;;4.74;89.86;101934.44;5110603;28;20196;-42
2022/01/17 09:29:24;;;;;;;14.57;3.80;;;;;;;4.72;89.38;101954.78;5111006;28;20582;-42
2022/01/17 09:31:50;;;;;;;20.08;3.25;;;;;;;4.83;89.60;101963.72;5111582;28;20629;-44
2022/01/17 09:34:15;;;;;;;18.80;2.95;;;;;;;4.92;88.95;101984.97;5109734;28;20479;-40
2022/01/17 09:36:41;;;;;;;19.80;3.80;;;;;;;4.95;88.27;101992.06;5110784;28;20249;-43
2022/01/17 09:39:07;;;;;;;14.27;3.15;;;;;;;5.04;88.36;102007.16;5110932;28;20201;-45
2022/01/17 09:41:33;;;;;;;18.40;3.50;;;;;;;5.17;86.19;102014.28;5110360;28;20154;-41
2022/01/17 09:43:59;;;;;;;24.63;3.97;;;;;;;5.28;82.84;102011.66;5109746;28;20177;-42
2022/01/17 09:46:28;;;;;;;21.27;3.75;;;;;;;5.25;81.51;102011.66;5109390;28;20236;-43
2022/01/17 09:49:01;;;;;;;18.73;3.92;;;;;;;5.37;81.37;102030.25;5111010;28;20161;-40
2022/01/17 09:52:02;;;;;;;25.25;4.90;;;;;;;5.31;80.10;102047.09;5109092;28;20224;-44
2022/01/17 09:54:29;;;;;;;26.67;4.60;;;;;;;5.37;80.24;102049.75;5110936;28;20173;-44
2022/01/17 09:56:56;;;;;;;18.00;3.88;;;;;;;5.41;79.22;102068.38;5111250;28;20201;-43
2022/01/17 09:59:22;;;;;;;25.10;3.92;;;;;;;5.51;78.51;102064.84;5110866;28;20666;-41
2022/01/17 10:01:48;;;;;;;29.02;4.55;;;;;;;5.42;77.48;102062.16;5110070;28;20651;-43
2022/01/17 10:04:16;;;;;;;26.30;4.68;;;;;;;5.46;77.89;102074.59;5110830;28;20209;-43
2022/01/17 10:06:55;;;;;;;28.23;4.88;;;;;;;5.43;76.82;102069.28;5110117;28;20206;-41
2022/01/17 10:09:24;;;;;;;21.02;4.90;;;;;;;5.55;76.20;102074.59;5110851;28;20161;-44
2022/01/17 10:12:08;;;;;;;22.17;3.95;;;;;;;5.55;77.00;102106.50;5111014;28;20568;-41
2022/01/17 10:14:39;;;;;;;28.15;5.20;;;;;;;5.57;77.54;102087.03;5111047;28;20181;-43
2022/01/17 10:17:13;;;;;;;25.25;5.30;;;;;;;5.51;77.31;102108.28;5110962;28;20200;-40
2022/01/17 10:19:40;;;;;;;25.20;4.50;;;;;;;5.60;76.13;102094.13;5111377;28;20193;-42
2022/01/17 10:22:13;;;;;;;33.20;5.15;;;;;;;5.38;75.20;102098.50;5111075;28;20215;-41
2022/01/17 10:24:58;;;;;;;28.90;5.05;;;;;;;5.54;75.50;102110.06;5111203;28;20162;-41
2022/01/17 10:27:59;;;;;;;29.58;4.65;;;;;;;5.60;75.76;102120.72;5110912;28;20177;-43
2022/01/17 10:31:04;;;;;;;23.52;4.40;;;;;;;5.62;75.42;102132.25;5109011;28;20209;-42
2022/01/17 10:36:45;;;;;;;25.80;4.90;;;;;;;5.40;74.83;102133.94;5079287;28;20592;-42
2022/01/17 10:39:11;;;;;;;36.92;6.38;;;;;;;5.52;75.87;102112.69;5087762;28;20166;-42
2022/01/17 10:41:37;;;;;;;25.63;4.97;;;;;;;5.39;75.11;102112.66;5078850;28;20181;-44
2022/01/17 10:44:03;;;;;;;17.13;4.68;;;;;;;5.36;75.12;102117.09;5090079;28;20253;-43
2022/01/17 10:46:28;;;;;;;29.40;4.88;;;;;;;5.37;74.75;102124.16;5089746;28;20200;-40
2022/01/17 10:48:56;;;;;;;28.20;5.07;;;;;;;5.22;74.57;102133.84;5090033;28;20243;-40
2022/01/17 10:51:35;;;;;;;20.60;4.80;;;;;;;5.33;75.96;102169.31;5089611;28;20209;-43
2022/01/17 10:54:21;;;;;;;25.33;5.93;;;;;;;5.28;75.54;102177.28;5105486;28;20174;-44
2022/01/17 10:56:53;;;;;;;26.13;4.78;;;;;;;5.38;75.47;102188.84;5089213;28;20241;-40
2022/01/17 10:59:31;;;;;;;30.55;5.18;;;;;;;5.11;75.39;102173.63;5090094;28;20271;-43
2022/01/17 11:01:57;;;;;;;26.55;5.15;;;;;;;5.21;76.20;102174.59;5089312;28;20416;-41
2022/01/17 11:04:39;;;;;;;27.90;5.22;;;;;;;5.20;76.96;102165.72;5090549;28;20520;-41
2022/01/17 11:07:08;;;;;;;21.30;4.60;;;;;;;5.31;76.70;102160.44;5090534;28;20190;-42
2022/01/17 11:09:46;;;;;;;22.92;5.43;;;;;;;5.32;75.84;102180.84;5090312;28;20170;-45
2022/01/17 11:12:14;;;;;;;23.00;4.90;;;;;;;5.33;76.34;102188.81;5090612;28;20193;-41
2022/01/17 11:14:41;;;;;;;20.25;4.65;;;;;;;5.03;74.69;102194.84;5090281;28;20186;-41
2022/01/17 11:17:35;;;;;;;29.23;4.72;;;;;;;5.09;75.18;102197.53;5090226;28;20185;-42
2022/01/17 11:22:29;;;;;;;21.85;5.55;;;;;;;5.19;75.87;102209.13;5094240;28;20166;-41
2022/01/17 11:24:57;;;;;;;21.85;4.10;;;;;;;5.25;74.74;102193.22;5094008;28;20162;-42
2022/01/17 11:27:22;;;;;;;30.30;5.32;;;;;;;5.26;75.40;102187.00;5109694;28;20253;-43
2022/01/17 11:29:49;;;;;;;27.83;5.38;;;;;;;5.28;75.80;102190.56;5094156;28;20726;-41
2022/01/17 11:32:14;;;;;;;24.50;4.72;;;;;;;5.35;75.58;102188.81;5109551;28;20194;-42
2022/01/17 11:34:40;;;;;;;24.83;5.07;;;;;;;5.31;75.22;102187.03;5094215;28;20172;-42
2022/01/17 11:37:05;;;;;;;26.52;4.75;;;;;;;5.32;75.12;102200.31;5093833;28;20276;-44
2022/01/17 11:39:31;;;;;;;21.08;4.28;;;;;;;5.28;75.36;102221.56;5093883;28;20185;-43
2022/01/17 11:41:57;;;;;;;25.55;5.28;;;;;;;5.12;75.21;102247.16;5093568;28;20181;-42
2022/01/17 11:44:33;;;;;;;29.10;5.55;;;;;;;5.28;75.38;102241.03;5104248;28;20191;-43
2022/01/17 11:46:59;;;;;;;27.27;4.40;;;;;;;5.40;76.56;102239.34;5114154;28;20200;-43
2022/01/17 11:49:31;;;;;;;24.30;4.45;;;;;;;5.42;75.05;102245.56;5113892;28;20161;-42